Time;durP1;ratioP1;P1;durP2;ratioP2;P2;SDS_P1;SDS_P2;PMS_P1;PMS_P2;Temp;Humidity;BMP_temperature;BMP_pressure;BME280_temperature;BME280_humidity;BME280_pressure;Samples;Min_cycle;Max_cycle;Signal;HPM_P1;HPM_P2
2023/03/08 10:18:49;;;;;;;;;;;;;;;4.87;70.75;96168.63;6208953;22;19969;-58
2023/03/08 10:21:16;;;;;;;;;;;;;;;4.87;70.90;96167.78;6185997;23;19990;-59
2023/03/08 10:23:41;;;;;;;;;;;;;;;4.91;71.09;96159.63;6212427;23;19908;-61
2023/03/08 10:26:10;;;;;;;;;;;;;;;4.97;71.10;96153.97;6188793;23;19912;-60
2023/03/08 10:28:35;;;;;;;;;;;;;;;5.07;70.92;96140.25;6213569;23;19908;-61
2023/03/08 10:31:03;;;;;;;;;;;;;;;5.09;70.79;96136.56;6214532;23;19912;-60
2023/03/08 10:33:32;;;;;;;;;;;;;;;5.18;70.67;96140.22;6216105;23;19983;-60
2023/03/08 10:35:57;;;;;;;;;;;;;;;5.19;70.79;96121.06;6189257;23;19983;-59
2023/03/08 10:38:22;;;;;;;;;;;;;;;5.19;70.80;96128.88;6187747;23;20302;-57
2023/03/08 10:40:48;;;;;;;;;;;;;;;5.15;71.06;96135.25;6215494;23;20247;-58
2023/03/08 10:43:26;;;;;;;;;;;;;;;5.17;70.97;96133.38;6215647;23;19908;-58
2023/03/08 10:46:01;;;;;;;;;;;;;;;5.16;71.45;96132.56;6190349;23;19908;-59
2023/03/08 10:48:27;;;;;;;;;;;;;;;5.15;71.12;96124.88;6214602;23;19915;-56
2023/03/08 10:51:02;;;;;;;;;;;;;;;5.23;70.93;96125.91;6189311;23;19912;-59
2023/03/08 10:53:28;;;;;;;;;;;;;;;5.27;71.22;96129.09;6217873;23;20383;-57
2023/03/08 10:55:54;;;;;;;;;;;;;;;5.33;70.93;96114.75;6214532;23;19912;-58
2023/03/08 10:58:26;;;;;;;;;;;;;;;5.28;70.99;96120.34;6213875;23;19912;-59
2023/03/08 11:00:52;;;;;;;;;;;;;;;5.33;71.15;96112.97;6188672;23;19912;-59
2023/03/08 11:03:18;;;;;;;;;;;;;;;5.37;71.20;96122.22;6187600;23;19908;-58
2023/03/08 11:06:12;;;;;;;;;;;;;;;5.36;71.07;96112.75;6213944;23;19940;-59
2023/03/08 11:08:38;;;;;;;;;;;;;;;5.38;71.27;96110.84;6092245;23;20416;-59
2023/03/08 11:11:05;;;;;;;;;;;;;;;5.37;71.32;96113.59;6092686;23;20000;-60
2023/03/08 11:13:31;;;;;;;;;;;;;;;5.35;71.81;96110.28;6092816;23;20329;-58
2023/03/08 11:16:13;;;;;;;;;;;;;;;5.33;71.62;96105.19;6068470;23;19964;-55
2023/03/08 11:18:47;;;;;;;;;;;;;;;5.36;71.56;96102.34;6067961;23;19913;-58
2023/03/08 11:21:33;;;;;;;;;;;;;;;5.38;71.66;96095.25;6068570;23;19913;-57
2023/03/08 11:23:58;;;;;;;;;;;;;;;5.44;71.61;96099.97;6021397;23;19910;-57
2023/03/08 11:26:32;;;;;;;;;;;;;;;5.50;71.62;96090.00;6093184;23;20356;-59
2023/03/08 11:29:13;;;;;;;;;;;;;;;5.52;72.16;96091.53;6092438;23;19961;-58
2023/03/08 11:31:45;;;;;;;;;;;;;;;5.56;72.21;96086.91;6068706;23;19920;-55
2023/03/08 11:34:29;;;;;;;;;;;;;;;5.58;72.53;96090.22;6067391;23;19913;-56
2023/03/08 11:37:01;;;;;;;;;;;;;;;5.59;72.51;96087.47;6092305;23;19909;-57
2023/03/08 11:39:31;;;;;;;;;;;;;;;5.65;72.45;96078.34;6068098;23;20364;-57
2023/03/08 11:42:16;;;;;;;;;;;;;;;5.67;72.49;96076.44;6092555;23;20354;-61
2023/03/08 11:45:00;;;;;;;;;;;;;;;5.68;72.97;96063.31;6111942;23;19908;-57
2023/03/08 11:47:42;;;;;;;;;;;;;;;5.69;73.04;96066.75;6213512;23;19907;-57
2023/03/08 11:50:07;;;;;;;;;;;;;;;5.69;73.20;96057.16;6214369;23;19915;-57
2023/03/08 11:52:56;;;;;;;;;;;;;;;5.64;73.22;96061.06;6214506;23;19913;-59
2023/03/08 11:55:21;;;;;;;;;;;;;;;5.62;73.10;96055.19;6158666;23;20342;-58
2023/03/08 11:57:48;;;;;;;;;;;;;;;5.59;73.58;96051.06;6213685;23;19908;-57
2023/03/08 12:00:32;;;;;;;;;;;;;;;5.56;73.85;96040.09;6208318;23;19915;-58
2023/03/08 12:02:58;;;;;;;;;;;;;;;5.58;73.58;96033.81;6214556;23;20287;-61
2023/03/08 12:05:30;;;;;;;;;;;;;;;5.64;73.37;96022.06;6190670;23;19914;-58
2023/03/08 12:07:57;;;;;;;;;;;;;;;5.63;74.27;96012.63;6191560;23;19994;-59
2023/03/08 12:10:24;;;;;;;;;;;;;;;5.59;74.79;96025.06;6189497;23;19966;-62
2023/03/08 12:13:00;;;;;;;;;;;;;;;5.54;75.12;96026.38;6188775;23;19946;-57
2023/03/08 12:15:30;;;;;;;;;;;;;;;5.54;75.32;96021.19;6190000;23;20035;-63
2023/03/08 12:17:58;;;;;;;;;;;;;;;5.59;75.06;95999.06;6188879;23;19916;-57
2023/03/08 12:20:33;;;;;;;;;;;;;;;5.65;75.01;95990.75;6189244;23;19908;-61
2023/03/08 12:22:59;;;;;;;;;;;;;;;5.70;75.14;95982.53;6215993;23;19935;-61
2023/03/08 12:25:25;;;;;;;;;;;;;;;5.72;75.41;95999.69;6191557;23;20391;-62
2023/03/08 12:28:00;;;;;;;;;;;;;;;5.73;75.69;95997.91;6193085;23;19927;-60
2023/03/08 12:30:29;;;;;;;;;;;;;;;5.71;76.44;95999.78;6165283;23;19908;-60
2023/03/08 12:32:55;;;;;;;;;;;;;;;5.72;77.10;95993.66;6217029;23;19912;-62
2023/03/08 12:35:26;;;;;;;;;;;;;;;5.75;76.83;95997.75;6192868;23;19908;-59
2023/03/08 12:37:55;;;;;;;;;;;;;;;5.73;76.46;95943.28;6214879;23;19958;-60
2023/03/08 12:40:30;;;;;;;;;;;;;;;5.61;77.29;95980.72;6215417;23;19962;-61
2023/03/08 12:43:11;;;;;;;;;;;;;;;5.60;77.79;95966.06;6215468;23;20005;-62
2023/03/08 12:45:37;;;;;;;;;;;;;;;5.64;78.07;95973.50;6190379;23;19914;-62
2023/03/08 12:48:05;;;;;;;;;;;;;;;5.67;77.95;95964.59;6188637;23;19982;-60
2023/03/08 12:50:56;;;;;;;;;;;;;;;5.62;78.90;95979.78;6214842;23;19916;-61
2023/03/08 12:53:23;;;;;;;;;;;;;;;5.63;79.28;95961.44;6161238;23;19920;-59
2023/03/08 12:56:02;;;;;;;;;;;;;;;5.67;79.49;95956.78;6188349;23;19959;-60
2023/03/08 12:58:27;;;;;;;;;;;;;;;5.69;78.87;95939.28;6214364;23;19907;-59
2023/03/08 13:00:59;;;;;;;;;;;;;;;5.77;78.76;95964.66;6214334;23;20244;-61
2023/03/08 13:03:25;;;;;;;;;;;;;;;5.69;79.52;95967.91;6214602;23;19961;-60
2023/03/08 13:05:51;;;;;;;;;;;;;;;5.75;79.58;95956.13;6188344;23;20255;-61
2023/03/08 13:08:30;;;;;;;;;;;;;;;5.78;79.64;95935.91;6188353;23;19922;-59
2023/03/08 13:10:57;;;;;;;;;;;;;;;5.79;79.51;95942.75;6214021;23;19912;-61
2023/03/08 13:13:23;;;;;;;;;;;;;;;5.74;80.04;95954.50;6214589;23;19908;-57
2023/03/08 13:15:48;;;;;;;;;;;;;;;5.72;80.08;95949.44;6214848;23;19915;-59
2023/03/08 13:18:14;;;;;;;;;;;;;;;5.78;80.50;95932.47;6188068;23;19912;-58
2023/03/08 13:20:40;;;;;;;;;;;;;;;5.89;80.46;95942.81;6214088;23;19907;-61
2023/03/08 13:23:14;;;;;;;;;;;;;;;6.08;79.43;95940.28;6214411;23;20342;-61
2023/03/08 13:25:42;;;;;;;;;;;;;;;6.16;79.35;95924.84;6214584;23;20282;-56
2023/03/08 13:28:11;;;;;;;;;;;;;;;6.20;79.60;95930.59;6214590;23;19908;-59
2023/03/08 13:30:37;;;;;;;;;;;;;;;6.20;79.24;95914.97;6213892;23;19907;-59
2023/03/08 13:33:06;;;;;;;;;;;;;;;6.14;80.29;95912.91;6187601;23;19958;-60
2023/03/08 13:35:31;;;;;;;;;;;;;;;6.18;79.82;95917.69;6188001;23;20336;-60
2023/03/08 13:37:58;;;;;;;;;;;;;;;6.17;79.46;95921.28;6214408;23;19939;-61
2023/03/08 13:40:23;;;;;;;;;;;;;;;6.13;79.97;95919.06;6187968;23;19908;-61
2023/03/08 13:42:59;;;;;;;;;;;;;;;6.18;80.49;95911.69;6213695;23;19915;-61
2023/03/08 13:45:24;;;;;;;;;;;;;;;6.26;80.80;95909.22;6187946;23;19986;-59
2023/03/08 13:47:49;;;;;;;;;;;;;;;6.39;80.62;95901.16;6214600;23;19912;-61
2023/03/08 13:50:31;;;;;;;;;;;;;;;6.42;80.57;95901.72;6214541;23;19998;-59
2023/03/08 13:52:56;;;;;;;;;;;;;;;6.51;80.79;95897.47;6186823;23;19958;-59
2023/03/08 13:55:27;;;;;;;;;;;;;;;6.54;79.86;95899.00;6214389;23;19908;-62
2023/03/08 13:57:52;;;;;;;;;;;;;;;6.56;81.36;95900.50;6187697;23;19912;-61
2023/03/08 14:00:21;;;;;;;;;;;;;;;8.73;81.91;95904.66;6213993;23;20022;-60
2023/03/08 14:02:46;;;;;;;;;;;;;;;10.62;69.09;95892.44;6214041;23;19931;-61
2023/03/08 14:05:19;;;;;;;;;;;;;;;10.08;66.63;95886.72;6213923;23;20397;-61
2023/03/08 14:07:53;;;;;;;;;;;;;;;9.45;68.88;95890.50;6188271;23;19908;-60
2023/03/08 14:10:20;;;;;;;;;;;;;;;8.85;71.29;95893.03;6214378;23;19931;-60
2023/03/08 14:12:45;;;;;;;;;;;;;;;8.47;73.12;95886.31;6213663;23;19916;-62
2023/03/08 14:15:16;;;;;;;;;;;;;;;8.12;74.72;95890.50;6213733;23;19943;-61
2023/03/08 14:17:42;;;;;;;;;;;;;;;7.91;75.71;95888.09;6214283;23;19918;-62
2023/03/08 14:20:20;;;;;;;;;;;;;;;7.72;76.87;95886.41;6213901;23;19987;-61
2023/03/08 14:22:49;;;;;;;;;;;;;;;7.60;77.70;95883.19;6187882;23;19908;-61
2023/03/08 14:25:22;;;;;;;;;;;;;;;7.53;78.44;95878.66;6186871;23;19912;-61
2023/03/08 14:27:47;;;;;;;;;;;;;;;7.49;79.35;95877.31;6187593;23;20335;-62
2023/03/08 14:30:14;;;;;;;;;;;;;;;7.45;79.74;95870.72;6214170;23;19915;-61
2023/03/08 14:32:41;;;;;;;;;;;;;;;7.46;79.55;95861.94;6214013;23;20259;-61
2023/03/08 14:35:18;;;;;;;;;;;;;;;7.53;80.13;95852.56;6213794;23;19991;-60
2023/03/08 14:37:45;;;;;;;;;;;;;;;7.54;80.55;95854.25;6187685;23;19939;-60
2023/03/08 14:40:13;;;;;;;;;;;;;;;7.56;80.85;95852.28;6214101;23;19962;-61
2023/03/08 14:42:45;;;;;;;;;;;;;;;7.57;80.61;95854.78;6213887;23;20343;-60
2023/03/08 14:45:21;;;;;;;;;;;;;;;7.66;80.79;95850.47;6187275;23;19915;-61
2023/03/08 14:47:51;;;;;;;;;;;;;;;7.68;81.56;95845.94;6187220;23;19915;-62
2023/03/08 14:50:17;;;;;;;;;;;;;;;7.74;81.76;95842.75;6187851;23;19908;-61
2023/03/08 14:52:43;;;;;;;;;;;;;;;7.87;82.44;95838.97;6187321;23;19919;-62
2023/03/08 14:55:19;;;;;;;;;;;;;;;7.98;82.50;95833.53;6187439;23;19914;-61
2023/03/08 14:57:44;;;;;;;;;;;;;;;8.04;82.25;95840.78;6186985;23;19930;-62
2023/03/08 15:00:13;;;;;;;;;;;;;;;8.09;82.55;95844.59;6214082;23;19908;-62
2023/03/08 15:02:38;;;;;;;;;;;;;;;8.15;82.99;95837.13;6213457;23;20690;-62
2023/03/08 15:05:04;;;;;;;;;;;;;;;8.22;82.83;95839.00;6213881;23;19912;-61
2023/03/08 15:07:31;;;;;;;;;;;;;;;8.25;82.90;95838.72;6213964;23;19908;-61
2023/03/08 15:09:56;;;;;;;;;;;;;;;8.30;83.15;95835.66;6187902;23;19908;-62
2023/03/08 15:12:21;;;;;;;;;;;;;;;8.30;83.24;95825.22;6189378;23;20304;-61
2023/03/08 15:14:46;;;;;;;;;;;;;;;8.34;83.74;95831.78;6214994;23;20292;-62
2023/03/08 15:17:11;;;;;;;;;;;;;;;8.34;83.65;95831.78;6189209;23;19966;-62
2023/03/08 15:19:37;;;;;;;;;;;;;;;8.35;84.12;95830.00;6215825;23;19916;-61
2023/03/08 15:22:03;;;;;;;;;;;;;;;8.36;83.95;95818.56;6215656;23;20374;-61
2023/03/08 15:24:28;;;;;;;;;;;;;;;8.39;83.65;95820.91;6163965;23;19908;-61
2023/03/08 15:26:55;;;;;;;;;;;;;;;8.41;84.13;95826.81;6215239;23;20251;-62
2023/03/08 15:29:27;;;;;;;;;;;;;;;8.38;84.28;95840.19;6215703;23;19907;-62
2023/03/08 15:31:53;;;;;;;;;;;;;;;8.40;84.54;95851.31;6189694;23;19912;-61
2023/03/08 15:34:18;;;;;;;;;;;;;;;8.38;85.11;95853.22;6188894;23;19995;-61
2023/03/08 15:36:43;;;;;;;;;;;;;;;8.37;85.34;95852.38;6215271;23;19954;-61
2023/03/08 15:39:11;;;;;;;;;;;;;;;8.41;85.99;95858.16;6216243;23;19908;-61
2023/03/08 15:41:37;;;;;;;;;;;;;;;8.40;85.71;95866.97;6215626;23;19915;-60
2023/03/08 15:44:02;;;;;;;;;;;;;;;8.42;86.76;95870.25;6215440;23;19987;-60
2023/03/08 15:46:27;;;;;;;;;;;;;;;8.40;87.46;95872.19;6214804;23;19946;-58
2023/03/08 15:48:52;;;;;;;;;;;;;;;8.38;87.56;95866.28;6215470;23;19908;-60
2023/03/08 15:51:18;;;;;;;;;;;;;;;8.32;88.22;95876.31;6215672;23;19994;-60
2023/03/08 15:53:43;;;;;;;;;;;;;;;8.41;88.45;95869.44;6189133;23;19935;-61
2023/03/08 15:56:09;;;;;;;;;;;;;;;8.30;88.74;95862.59;6215406;23;19959;-60
2023/03/08 15:58:34;;;;;;;;;;;;;;;8.29;88.83;95860.97;6214541;23;19907;-61
2023/03/08 16:00:59;;;;;;;;;;;;;;;8.22;89.92;95859.88;6215500;23;19983;-62
2023/03/08 16:03:27;;;;;;;;;;;;;;;8.19;89.51;95855.00;6215330;23;20005;-60
2023/03/08 16:05:53;;;;;;;;;;;;;;;8.18;89.36;95860.34;6188882;23;20298;-61
2023/03/08 16:08:18;;;;;;;;;;;;;;;8.16;89.23;95855.28;6214472;23;19915;-61
2023/03/08 16:10:44;;;;;;;;;;;;;;;8.13;89.24;95850.34;6215631;23;19962;-60
2023/03/08 16:13:10;;;;;;;;;;;;;;;8.09;89.23;95849.00;6189654;23;20332;-61
2023/03/08 16:15:37;;;;;;;;;;;;;;;8.09;90.31;95849.00;6215721;23;19908;-61
2023/03/08 16:18:03;;;;;;;;;;;;;;;8.08;89.88;95842.13;6187903;23;20370;-61
2023/03/08 16:20:28;;;;;;;;;;;;;;;8.05;90.10;95839.81;6215448;23;19983;-61
2023/03/08 16:22:54;;;;;;;;;;;;;;;8.04;90.69;95830.34;6214510;23;19908;-59
2023/03/08 16:25:21;;;;;;;;;;;;;;;8.03;91.31;95828.69;6188992;23;19915;-60
2023/03/08 16:27:46;;;;;;;;;;;;;;;8.02;91.77;95817.44;6214707;23;19914;-59
2023/03/08 16:30:12;;;;;;;;;;;;;;;8.01;91.85;95821.00;6214241;23;20019;-60
2023/03/08 16:32:37;;;;;;;;;;;;;;;8.03;91.89;95823.47;6215166;23;19912;-60
2023/03/08 16:35:02;;;;;;;;;;;;;;;8.04;92.02;95817.28;6215196;23;20402;-61
2023/03/08 16:37:28;;;;;;;;;;;;;;;8.05;92.36;95811.09;6215093;23;19916;-60
2023/03/08 16:39:53;;;;;;;;;;;;;;;8.03;92.43;95810.44;6214038;23;19912;-61
2023/03/08 16:42:18;;;;;;;;;;;;;;;8.00;92.85;95823.78;6214037;23;19919;-61
2023/03/08 16:44:47;;;;;;;;;;;;;;;7.97;93.49;95824.06;6188282;23;19929;-62
2023/03/08 16:47:12;;;;;;;;;;;;;;;7.94;93.65;95826.97;6188444;23;19912;-62
2023/03/08 16:49:38;;;;;;;;;;;;;;;7.94;93.72;95829.56;6214970;23;20053;-62
2023/03/08 16:52:04;;;;;;;;;;;;;;;7.98;93.42;95836.13;6213827;23;19967;-61
2023/03/08 16:54:29;;;;;;;;;;;;;;;7.98;93.95;95825.69;6188375;23;19974;-60
2023/03/08 16:56:55;;;;;;;;;;;;;;;7.96;94.29;95831.06;6215723;23;20259;-61
2023/03/08 16:59:20;;;;;;;;;;;;;;;7.94;94.87;95840.84;6214871;23;19942;-61
2023/03/08 17:01:46;;;;;;;;;;;;;;;7.92;95.05;95826.31;6214601;23;19982;-61
2023/03/08 17:04:11;;;;;;;;;;;;;;;7.94;94.70;95832.19;6214227;23;19947;-62
2023/03/08 17:06:36;;;;;;;;;;;;;;;7.93;95.19;95838.38;6214853;23;19911;-61
2023/03/08 17:09:01;;;;;;;;;;;;;;;7.94;95.28;95845.22;6188251;23;19908;-61
2023/03/08 17:11:28;;;;;;;;;;;;;;;7.93;95.19;95841.81;6214644;23;19938;-61
2023/03/08 17:13:54;;;;;;;;;;;;;;;7.95;94.84;95832.06;6187290;23;19982;-60
2023/03/08 17:16:20;;;;;;;;;;;;;;;7.98;95.28;95825.69;6214659;23;19915;-61
2023/03/08 17:18:46;;;;;;;;;;;;;;;8.01;95.11;95826.22;6214345;23;19912;-60
2023/03/08 17:21:11;;;;;;;;;;;;;;;8.03;94.44;95819.06;6214141;23;20328;-59
2023/03/08 17:23:36;;;;;;;;;;;;;;;8.06;94.44;95829.22;6214550;23;19962;-61
2023/03/08 17:26:02;;;;;;;;;;;;;;;8.08;94.11;95834.28;6214609;23;19907;-61
2023/03/08 17:28:27;;;;;;;;;;;;;;;8.12;93.59;95837.44;6214472;23;19986;-61
2023/03/08 17:30:53;;;;;;;;;;;;;;;8.15;93.91;95839.75;6213264;23;19936;-60
2023/03/08 17:33:19;;;;;;;;;;;;;;;8.15;93.88;95837.94;6214161;23;19962;-59
2023/03/08 17:35:44;;;;;;;;;;;;;;;8.18;93.82;95842.06;6214552;23;19908;-60
2023/03/08 17:38:10;;;;;;;;;;;;;;;8.19;93.12;95838.47;6214370;23;19958;-59
2023/03/08 17:40:37;;;;;;;;;;;;;;;10.07;78.50;95837.09;6214109;23;19912;-60
2023/03/08 17:43:02;;;;;;;;;;;;;;;10.93;76.23;95834.94;6187194;23;20366;-60
2023/03/08 17:45:28;;;;;;;;;;;;;;;10.41;79.54;95842.28;6214719;23;19908;-60
2023/03/08 17:47:59;;;;;;;;;;;;;;;10.04;81.22;95842.66;6214317;23;19977;-60
2023/03/08 17:50:25;;;;;;;;;;;;;;;9.70;83.32;95839.13;6214366;23;19908;-61
2023/03/08 17:52:50;;;;;;;;;;;;;;;9.33;85.24;95831.56;6213004;23;19923;-61
2023/03/08 17:55:15;;;;;;;;;;;;;;;9.06;86.71;95836.97;6214698;23;19908;-61
2023/03/08 17:57:40;;;;;;;;;;;;;;;8.89;87.41;95830.81;6214329;23;19912;-61
2023/03/08 18:00:09;;;;;;;;;;;;;;;8.66;89.65;95830.44;6215451;23;19915;-61
2023/03/08 18:02:34;;;;;;;;;;;;;;;8.50;90.23;95829.34;6189755;23;19908;-61
2023/03/08 18:05:00;;;;;;;;;;;;;;;8.41;90.81;95824.22;6216031;23;19915;-61
2023/03/08 18:07:26;;;;;;;;;;;;;;;8.32;91.88;95818.84;6215585;23;20332;-61
2023/03/08 18:09:51;;;;;;;;;;;;;;;8.27;92.10;95813.28;6215085;23;19916;-61
2023/03/08 18:12:17;;;;;;;;;;;;;;;8.20;93.20;95814.03;6213817;23;19912;-61
2023/03/08 18:14:42;;;;;;;;;;;;;;;8.17;93.28;95815.13;6214054;23;20240;-61
2023/03/08 18:17:07;;;;;;;;;;;;;;;8.14;93.91;95815.44;6187625;23;20231;-60
2023/03/08 18:19:32;;;;;;;;;;;;;;;8.12;93.84;95817.38;6188364;23;19978;-60
2023/03/08 18:21:58;;;;;;;;;;;;;;;8.10;94.24;95824.53;6214414;23;19990;-61
2023/03/08 18:24:23;;;;;;;;;;;;;;;8.11;94.64;95826.16;6213013;23;19939;-61
2023/03/08 18:26:48;;;;;;;;;;;;;;;8.09;95.26;95817.69;6187587;23;19935;-61
2023/03/08 18:29:14;;;;;;;;;;;;;;;8.07;95.25;95814.38;6213948;23;20288;-61
2023/03/08 18:31:39;;;;;;;;;;;;;;;8.08;95.63;95818.63;6187519;23;20294;-61
2023/03/08 18:34:05;;;;;;;;;;;;;;;8.04;95.63;95799.00;6213339;23;19908;-61
2023/03/08 18:36:30;;;;;;;;;;;;;;;8.05;95.21;95806.72;6213580;23;19994;-61
2023/03/08 18:38:55;;;;;;;;;;;;;;;8.05;95.24;95816.31;6213808;23;19908;-59
2023/03/08 18:41:21;;;;;;;;;;;;;;;8.04;95.33;95814.69;6188049;23;19915;-61
2023/03/08 18:43:46;;;;;;;;;;;;;;;8.03;95.34;95823.47;6188540;23;19908;-61
2023/03/08 18:46:12;;;;;;;;;;;;;;;8.01;95.35;95822.78;6214834;23;19943;-61
2023/03/08 18:48:37;;;;;;;;;;;;;;;7.99;95.62;95819.53;6216452;23;19915;-61
2023/03/08 18:51:02;;;;;;;;;;;;;;;7.97;95.48;95816.22;6215907;23;19915;-61
2023/03/08 18:53:27;;;;;;;;;;;;;;;7.96;95.83;95817.22;6215758;23;19914;-62
2023/03/08 18:55:53;;;;;;;;;;;;;;;7.95;95.57;95815.53;6215547;23;19954;-61
2023/03/08 18:58:18;;;;;;;;;;;;;;;7.93;95.01;95807.06;6215463;23;19908;-61
2023/03/08 19:00:44;;;;;;;;;;;;;;;7.92;95.32;95811.47;6215788;23;20382;-61
2023/03/08 19:03:09;;;;;;;;;;;;;;;7.90;95.23;95808.16;6215647;23;20247;-61
2023/03/08 19:05:34;;;;;;;;;;;;;;;7.91;95.47;95815.03;6215441;23;20335;-61
2023/03/08 19:07:59;;;;;;;;;;;;;;;7.89;95.43;95800.50;6214662;23;20347;-61
2023/03/08 19:10:25;;;;;;;;;;;;;;;7.88;95.55;95804.91;6215797;23;19912;-61
2023/03/08 19:12:50;;;;;;;;;;;;;;;7.87;94.99;95802.41;6216982;23;19912;-61
2023/03/08 19:15:15;;;;;;;;;;;;;;;7.86;95.68;95785.94;6217519;23;19915;-61
2023/03/08 19:17:40;;;;;;;;;;;;;;;7.85;95.62;95790.34;6215679;23;19912;-61
2023/03/08 19:20:06;;;;;;;;;;;;;;;7.85;96.25;95800.78;6217613;23;19911;-60
2023/03/08 19:22:32;;;;;;;;;;;;;;;7.87;96.11;95808.47;6216523;23;20321;-60
2023/03/08 19:24:57;;;;;;;;;;;;;;;7.87;96.73;95805.03;6216365;23;19912;-60
2023/03/08 19:27:22;;;;;;;;;;;;;;;7.84;97.71;95791.31;6215407;23;20039;-61
2023/03/08 19:29:47;;;;;;;;;;;;;;;7.83;97.47;95784.44;6215398;23;19951;-61
2023/03/08 19:32:14;;;;;;;;;;;;;;;7.82;97.66;95785.41;6215322;23;19912;-61
2023/03/08 19:34:43;;;;;;;;;;;;;;;7.82;97.99;95789.81;6215844;23;19915;-61
2023/03/08 19:37:11;;;;;;;;;;;;;;;7.80;98.09;95787.34;6216803;23;19911;-60
2023/03/08 19:39:36;;;;;;;;;;;;;;;7.80;98.05;95782.13;6215713;23;19951;-61
2023/03/08 19:42:02;;;;;;;;;;;;;;;7.79;98.25;95784.91;6216035;23;19912;-60
2023/03/08 19:44:28;;;;;;;;;;;;;;;7.76;98.24;95786.00;6216232;23;19919;-60
2023/03/08 19:46:53;;;;;;;;;;;;;;;7.77;98.29;95785.03;6189061;23;20243;-61
2023/03/08 19:49:19;;;;;;;;;;;;;;;7.77;98.03;95782.41;6188059;23;19930;-60
2023/03/08 19:51:51;;;;;;;;;;;;;;;7.77;98.16;95792.03;6188998;23;19912;-60
2023/03/08 19:54:16;;;;;;;;;;;;;;;7.76;98.52;95779.97;6214251;23;19915;-60
2023/03/08 19:56:42;;;;;;;;;;;;;;;7.75;98.12;95797.41;6214155;23;19912;-60
2023/03/08 19:59:07;;;;;;;;;;;;;;;7.74;98.37;95790.56;6213929;23;19908;-60
2023/03/08 20:01:32;;;;;;;;;;;;;;;7.74;98.46;95811.44;6213767;23;19912;-60
2023/03/08 20:03:57;;;;;;;;;;;;;;;7.70;99.70;95824.91;6213719;23;19940;-60
2023/03/08 20:06:23;;;;;;;;;;;;;;;7.68;99.67;95813.81;6213438;23;19914;-58
2023/03/08 20:08:49;;;;;;;;;;;;;;;7.67;100.00;95823.41;6215052;23;19915;-60
2023/03/08 20:11:14;;;;;;;;;;;;;;;7.69;100.00;95811.03;6213483;23;19912;-59
2023/03/08 20:13:39;;;;;;;;;;;;;;;7.69;100.00;95816.25;6214818;23;20302;-59
2023/03/08 20:16:04;;;;;;;;;;;;;;;7.71;100.00;95824.78;6215121;23;20322;-60
2023/03/08 20:18:30;;;;;;;;;;;;;;;7.73;100.00;95822.00;6214646;23;20252;-60
2023/03/08 20:20:57;;;;;;;;;;;;;;;7.73;100.00;95830.66;6214409;23;19930;-60
2023/03/08 20:23:22;;;;;;;;;;;;;;;7.72;100.00;95829.00;6215041;23;19908;-59
2023/03/08 20:25:48;;;;;;;;;;;;;;;7.73;100.00;95828.03;6215035;23;19915;-59
2023/03/08 20:28:13;;;;;;;;;;;;;;;7.73;100.00;95842.88;6215242;23;19912;-59
2023/03/08 20:30:38;;;;;;;;;;;;;;;7.72;100.00;95834.22;6215095;23;19946;-58
2023/03/08 20:33:04;;;;;;;;;;;;;;;7.70;100.00;95838.75;6214699;23;19915;-59
2023/03/08 20:35:29;;;;;;;;;;;;;;;7.71;100.00;95840.44;6213618;23;19937;-59
2023/03/08 20:37:54;;;;;;;;;;;;;;;7.70;100.00;95846.59;6213779;23;19908;-60
2023/03/08 20:40:19;;;;;;;;;;;;;;;7.71;100.00;95837.81;6214930;23;19908;-61
2023/03/08 20:42:44;;;;;;;;;;;;;;;7.71;100.00;95845.66;6214586;23;19915;-60
2023/03/08 20:45:10;;;;;;;;;;;;;;;7.73;100.00;95842.88;6214030;23;19942;-60
2023/03/08 20:47:35;;;;;;;;;;;;;;;7.73;100.00;95842.88;6214774;23;19915;-60
2023/03/08 20:50:01;;;;;;;;;;;;;;;7.72;100.00;95842.06;6213387;23;19970;-60
2023/03/08 20:52:26;;;;;;;;;;;;;;;7.72;100.00;95836.03;6187838;23;20334;-60
2023/03/08 20:54:51;;;;;;;;;;;;;;;7.69;100.00;95846.75;6213525;23;20292;-60
2023/03/08 20:57:17;;;;;;;;;;;;;;;7.70;100.00;95836.16;6214414;23;20400;-60
2023/03/08 20:59:42;;;;;;;;;;;;;;;7.66;100.00;95837.41;6214641;23;20252;-61
2023/03/08 21:02:08;;;;;;;;;;;;;;;7.65;100.00;95848.81;6187685;23;19962;-61
2023/03/08 21:04:34;;;;;;;;;;;;;;;7.65;100.00;95830.56;6187488;23;19958;-60
2023/03/08 21:06:59;;;;;;;;;;;;;;;7.65;100.00;95830.56;6214595;23;20485;-61
2023/03/08 21:09:24;;;;;;;;;;;;;;;7.65;100.00;95830.56;6187304;23;20359;-61
2023/03/08 21:11:49;;;;;;;;;;;;;;;7.64;100.00;95847.19;6214528;23;19966;-60
2023/03/08 21:14:15;;;;;;;;;;;;;;;7.63;100.00;95847.31;6213402;23;19908;-60
2023/03/08 21:16:40;;;;;;;;;;;;;;;7.64;100.00;95843.72;6213501;23;20374;-60
2023/03/08 21:19:05;;;;;;;;;;;;;;;7.60;100.00;95849.28;6212154;23;19958;-61
2023/03/08 21:21:38;;;;;;;;;;;;;;;7.60;100.00;95848.41;6187407;23;20330;-60
2023/03/08 21:24:04;;;;;;;;;;;;;;;7.56;100.00;95854.91;6213128;23;19914;-61
2023/03/08 21:26:29;;;;;;;;;;;;;;;7.55;100.00;95868.91;6214042;23;19986;-61
2023/03/08 21:28:55;;;;;;;;;;;;;;;7.50;99.83;95861.53;6213555;23;19935;-61
2023/03/08 21:31:22;;;;;;;;;;;;;;;7.50;100.00;95864.13;6186812;23;19919;-58
2023/03/08 21:33:47;;;;;;;;;;;;;;;7.50;100.00;95877.19;6213221;23;19912;-59
2023/03/08 21:36:14;;;;;;;;;;;;;;;7.51;100.00;95875.38;6212949;23;20205;-58
2023/03/08 21:38:40;;;;;;;;;;;;;;;7.45;99.47;95875.94;6213949;23;19915;-56
2023/03/08 21:41:05;;;;;;;;;;;;;;;7.41;99.38;95874.59;6213626;23;20383;-57
2023/03/08 21:43:30;;;;;;;;;;;;;;;7.41;99.82;95880.63;6212474;23;19912;-55
2023/03/08 21:45:55;;;;;;;;;;;;;;;7.41;98.87;95874.59;6213566;23;19994;-57
2023/03/08 21:48:21;;;;;;;;;;;;;;;7.41;99.01;95870.19;6213421;23;19912;-58
2023/03/08 21:50:46;;;;;;;;;;;;;;;7.35;98.76;95879.41;6214292;23;19931;-58
2023/03/08 21:53:11;;;;;;;;;;;;;;;7.35;98.24;95881.19;6213520;23;19991;-58
2023/03/08 21:55:39;;;;;;;;;;;;;;;7.35;99.12;95875.97;6213732;23;19908;-56
2023/03/08 21:58:05;;;;;;;;;;;;;;;7.37;98.29;95879.28;6214467;23;19982;-56
2023/03/08 22:00:31;;;;;;;;;;;;;;;7.35;98.76;95871.56;6214125;23;19947;-56
2023/03/08 22:02:56;;;;;;;;;;;;;;;7.35;98.54;95870.75;6213781;23;19912;-59
2023/03/08 22:05:21;;;;;;;;;;;;;;;7.34;98.61;95875.16;6186242;23;20420;-58
2023/03/08 22:07:46;;;;;;;;;;;;;;;7.34;98.86;95856.09;6214165;23;20345;-58
2023/03/08 22:10:11;;;;;;;;;;;;;;;7.34;98.61;95828.22;6214043;23;19916;-56
2023/03/08 22:12:37;;;;;;;;;;;;;;;7.34;98.35;95825.63;6213957;23;19919;-57
2023/03/08 22:15:02;;;;;;;;;;;;;;;7.35;98.83;95824.63;6214043;23;19916;-58
2023/03/08 22:17:27;;;;;;;;;;;;;;;7.35;98.32;95829.84;6187308;23;19991;-59
2023/03/08 22:19:53;;;;;;;;;;;;;;;7.35;98.55;95834.25;6213439;23;19908;-58
2023/03/08 22:22:18;;;;;;;;;;;;;;;7.37;98.53;95837.56;6213649;23;19912;-58
2023/03/08 22:24:43;;;;;;;;;;;;;;;7.46;97.94;95835.84;6187235;23;19958;-59
2023/03/08 22:27:09;;;;;;;;;;;;;;;7.53;96.39;95826.50;6213545;23;20320;-58
2023/03/08 22:29:35;;;;;;;;;;;;;;;7.66;95.32;95818.34;6214103;23;19914;-58
2023/03/08 22:32:00;;;;;;;;;;;;;;;7.77;93.79;95813.72;6187197;23;19912;-60
2023/03/08 22:34:25;;;;;;;;;;;;;;;7.88;92.36;95817.94;6214100;23;20228;-60
2023/03/08 22:36:50;;;;;;;;;;;;;;;7.99;91.02;95816.91;6213886;23;19908;-58
2023/03/08 22:39:16;;;;;;;;;;;;;;;8.07;89.80;95809.16;6212548;23;19912;-60
2023/03/08 22:41:41;;;;;;;;;;;;;;;8.16;88.75;95808.28;6186642;23;19907;-59
2023/03/08 22:44:08;;;;;;;;;;;;;;;8.22;88.12;95810.28;6213767;23;19907;-59
2023/03/08 22:46:33;;;;;;;;;;;;;;;8.29;87.63;95798.28;6187397;23;19911;-59
2023/03/08 22:48:58;;;;;;;;;;;;;;;8.32;87.31;95797.16;6210031;23;19970;-59
2023/03/08 22:51:23;;;;;;;;;;;;;;;8.35;86.51;95796.84;6212566;23;20216;-60
2023/03/08 22:53:49;;;;;;;;;;;;;;;8.39;86.29;95797.41;6212981;23;19912;-59
2023/03/08 22:56:15;;;;;;;;;;;;;;;8.40;86.35;95789.44;6213237;23;19908;-60
2023/03/08 22:58:41;;;;;;;;;;;;;;;8.43;86.06;95789.13;6186892;23;19908;-59
2023/03/08 23:01:11;;;;;;;;;;;;;;;8.46;85.85;95793.22;6212577;23;19914;-58
2023/03/08 23:03:36;;;;;;;;;;;;;;;8.47;85.77;95795.69;6211047;23;19907;-58
2023/03/08 23:06:02;;;;;;;;;;;;;;;8.51;85.67;95791.00;6210691;23;20339;-59
2023/03/08 23:08:27;;;;;;;;;;;;;;;8.51;84.87;95785.75;6213098;23;20344;-58
2023/03/08 23:10:53;;;;;;;;;;;;;;;8.51;85.25;95780.53;6212772;23;20330;-60
2023/03/08 23:13:18;;;;;;;;;;;;;;;8.52;85.66;95779.56;6212864;23;19912;-57